sensor_id;sensor_type;location;lat;lon;timestamp;P1;P2;P0
70915;PMS5003;58557;50.982;-3.222;2023-02-24T00:00:17;33;32;
70915;PMS5003;58557;50.982;-3.222;2023-02-24T00:02:42;37;30;
70915;PMS5003;58557;50.982;-3.222;2023-02-24T00:05:08;37;32;
70915;PMS5003;58557;50.982;-3.222;2023-02-24T00:07:34;26;26;
70915;PMS5003;58557;50.982;-3.222;2023-02-24T00:09:59;44;39;
70915;PMS5003;58557;50.982;-3.222;2023-02-24T00:12:24;34;25;
70915;PMS5003;58557;50.982;-3.222;2023-02-24T00:14:50;39;35;
70915;PMS5003;58557;50.982;-3.222;2023-02-24T00:17:15;31;31;
70915;PMS5003;58557;50.982;-3.222;2023-02-24T00:19:41;27;25;
70915;PMS5003;58557;50.982;-3.222;2023-02-24T00:22:07;29;25;
70915;PMS5003;58557;50.982;-3.222;2023-02-24T00:24:32;23;21;
70915;PMS5003;58557;50.982;-3.222;2023-02-24T00:26:58;17;14;
70915;PMS5003;58557;50.982;-3.222;2023-02-24T00:29:23;17;16;
70915;PMS5003;58557;50.982;-3.222;2023-02-24T00:31:49;21;16;
70915;PMS5003;58557;50.982;-3.222;2023-02-24T00:34:14;25;18;
70915;PMS5003;58557;50.982;-3.222;2023-02-24T00:36:39;20;18;
70915;PMS5003;58557;50.982;-3.222;2023-02-24T00:39:06;24;20;
70915;PMS5003;58557;50.982;-3.222;2023-02-24T00:41:31;23;23;
70915;PMS5003;58557;50.982;-3.222;2023-02-24T00:43:57;24;21;
70915;PMS5003;58557;50.982;-3.222;2023-02-24T00:46:24;29;23;
70915;PMS5003;58557;50.982;-3.222;2023-02-24T00:48:48;25;21;
70915;PMS5003;58557;50.982;-3.222;2023-02-24T00:51:13;32;24;
70915;PMS5003;58557;50.982;-3.222;2023-02-24T00:53:38;43;40;
70915;PMS5003;58557;50.982;-3.222;2023-02-24T00:56:04;44;34;
70915;PMS5003;58557;50.982;-3.222;2023-02-24T00:58:29;36;30;
70915;PMS5003;58557;50.982;-3.222;2023-02-24T01:00:54;35;30;
70915;PMS5003;58557;50.982;-3.222;2023-02-24T01:03:19;28;21;
70915;PMS5003;58557;50.982;-3.222;2023-02-24T01:05:45;31;27;
70915;PMS5003;58557;50.982;-3.222;2023-02-24T01:08:10;23;20;
70915;PMS5003;58557;50.982;-3.222;2023-02-24T01:10:36;23;20;
70915;PMS5003;58557;50.982;-3.222;2023-02-24T01:13:01;26;24;
70915;PMS5003;58557;50.982;-3.222;2023-02-24T01:15:27;23;21;
70915;PMS5003;58557;50.982;-3.222;2023-02-24T01:17:53;25;23;
70915;PMS5003;58557;50.982;-3.222;2023-02-24T01:20:19;31;23;
70915;PMS5003;58557;50.982;-3.222;2023-02-24T01:22:45;24;21;
70915;PMS5003;58557;50.982;-3.222;2023-02-24T01:25:10;23;21;
70915;PMS5003;58557;50.982;-3.222;2023-02-24T01:27:36;17;17;
70915;PMS5003;58557;50.982;-3.222;2023-02-24T01:30:01;17;12;
70915;PMS5003;58557;50.982;-3.222;2023-02-24T01:32:27;27;18;
70915;PMS5003;58557;50.982;-3.222;2023-02-24T01:34:52;15;15;
70915;PMS5003;58557;50.982;-3.222;2023-02-24T01:37:17;24;21;
70915;PMS5003;58557;50.982;-3.222;2023-02-24T01:39:42;14;14;
70915;PMS5003;58557;50.982;-3.222;2023-02-24T01:42:09;17;14;
70915;PMS5003;58557;50.982;-3.222;2023-02-24T01:46:58;16;16;
70915;PMS5003;58557;50.982;-3.222;2023-02-24T01:49:26;25;24;
70915;PMS5003;58557;50.982;-3.222;2023-02-24T01:51:51;23;20;
70915;PMS5003;58557;50.982;-3.222;2023-02-24T01:54:16;15;15;
70915;PMS5003;58557;50.982;-3.222;2023-02-24T01:56:41;23;21;
70915;PMS5003;58557;50.982;-3.222;2023-02-24T01:59:07;28;24;
70915;PMS5003;58557;50.982;-3.222;2023-02-24T02:01:32;20;16;
70915;PMS5003;58557;50.982;-3.222;2023-02-24T02:03:58;31;25;
70915;PMS5003;58557;50.982;-3.222;2023-02-24T02:06:23;30;24;
70915;PMS5003;58557;50.982;-3.222;2023-02-24T02:08:49;31;23;
70915;PMS5003;58557;50.982;-3.222;2023-02-24T02:11:15;32;28;
70915;PMS5003;58557;50.982;-3.222;2023-02-24T02:13:41;24;21;
70915;PMS5003;58557;50.982;-3.222;2023-02-24T02:16:10;23;21;
70915;PMS5003;58557;50.982;-3.222;2023-02-24T02:18:35;21;19;
70915;PMS5003;58557;50.982;-3.222;2023-02-24T02:23:30;32;28;
70915;PMS5003;58557;50.982;-3.222;2023-02-24T02:25:52;23;20;
70915;PMS5003;58557;50.982;-3.222;2023-02-24T02:30:43;23;20;
70915;PMS5003;58557;50.982;-3.222;2023-02-24T02:35:30;21;15;
70915;PMS5003;58557;50.982;-3.222;2023-02-24T02:37:57;23;19;
70915;PMS5003;58557;50.982;-3.222;2023-02-24T02:40:22;19;16;
70915;PMS5003;58557;50.982;-3.222;2023-02-24T02:42:48;30;24;
70915;PMS5003;58557;50.982;-3.222;2023-02-24T02:45:14;25;20;
70915;PMS5003;58557;50.982;-3.222;2023-02-24T02:47:39;21;20;
70915;PMS5003;58557;50.982;-3.222;2023-02-24T02:50:05;19;17;
70915;PMS5003;58557;50.982;-3.222;2023-02-24T02:52:32;17;16;
70915;PMS5003;58557;50.982;-3.222;2023-02-24T02:54:55;19;15;
70915;PMS5003;58557;50.982;-3.222;2023-02-24T02:57:20;14;12;
70915;PMS5003;58557;50.982;-3.222;2023-02-24T02:59:46;17;13;
70915;PMS5003;58557;50.982;-3.222;2023-02-24T03:02:10;27;23;
70915;PMS5003;58557;50.982;-3.222;2023-02-24T03:04:36;16;13;
70915;PMS5003;58557;50.982;-3.222;2023-02-24T03:07:00;17;16;
70915;PMS5003;58557;50.982;-3.222;2023-02-24T03:09:26;16;13;
70915;PMS5003;58557;50.982;-3.222;2023-02-24T03:11:52;14;12;
70915;PMS5003;58557;50.982;-3.222;2023-02-24T03:14:16;12;10;
70915;PMS5003;58557;50.982;-3.222;2023-02-24T03:16:42;16;13;
70915;PMS5003;58557;50.982;-3.222;2023-02-24T03:19:07;22;21;
70915;PMS5003;58557;50.982;-3.222;2023-02-24T03:21:33;16;14;
70915;PMS5003;58557;50.982;-3.222;2023-02-24T03:23:57;17;13;
70915;PMS5003;58557;50.982;-3.222;2023-02-24T03:26:24;14;11;
70915;PMS5003;58557;50.982;-3.222;2023-02-24T03:28:52;15;11;
70915;PMS5003;58557;50.982;-3.222;2023-02-24T03:31:15;15;11;
70915;PMS5003;58557;50.982;-3.222;2023-02-24T03:33:39;10;9;
70915;PMS5003;58557;50.982;-3.222;2023-02-24T03:36:04;18;17;
70915;PMS5003;58557;50.982;-3.222;2023-02-24T03:38:30;13;13;
70915;PMS5003;58557;50.982;-3.222;2023-02-24T03:40:55;23;19;
70915;PMS5003;58557;50.982;-3.222;2023-02-24T03:43:22;15;14;
70915;PMS5003;58557;50.982;-3.222;2023-02-24T03:45:45;11;9;
70915;PMS5003;58557;50.982;-3.222;2023-02-24T03:48:11;14;10;
70915;PMS5003;58557;50.982;-3.222;2023-02-24T03:50:36;11;10;
70915;PMS5003;58557;50.982;-3.222;2023-02-24T03:53:04;13;10;
70915;PMS5003;58557;50.982;-3.222;2023-02-24T03:55:31;14;13;
70915;PMS5003;58557;50.982;-3.222;2023-02-24T03:57:56;16;14;
70915;PMS5003;58557;50.982;-3.222;2023-02-24T04:00:18;18;14;
70915;PMS5003;58557;50.982;-3.222;2023-02-24T04:02:43;19;15;
70915;PMS5003;58557;50.982;-3.222;2023-02-24T04:05:09;12;12;
70915;PMS5003;58557;50.982;-3.222;2023-02-24T04:07:36;15;11;
70915;PMS5003;58557;50.982;-3.222;2023-02-24T04:10:02;15;10;
70915;PMS5003;58557;50.982;-3.222;2023-02-24T04:12:26;12;11;
70915;PMS5003;58557;50.982;-3.222;2023-02-24T04:14:52;14;11;
70915;PMS5003;58557;50.982;-3.222;2023-02-24T04:17:17;12;11;
70915;PMS5003;58557;50.982;-3.222;2023-02-24T04:19:41;12;12;
70915;PMS5003;58557;50.982;-3.222;2023-02-24T04:22:08;16;14;
70915;PMS5003;58557;50.982;-3.222;2023-02-24T04:24:32;12;9;
70915;PMS5003;58557;50.982;-3.222;2023-02-24T04:26:59;12;11;
70915;PMS5003;58557;50.982;-3.222;2023-02-24T04:29:23;14;12;
70915;PMS5003;58557;50.982;-3.222;2023-02-24T04:31:50;14;8;
70915;PMS5003;58557;50.982;-3.222;2023-02-24T04:34:13;12;8;
70915;PMS5003;58557;50.982;-3.222;2023-02-24T04:36:39;14;11;
70915;PMS5003;58557;50.982;-3.222;2023-02-24T04:39:04;8;8;
70915;PMS5003;58557;50.982;-3.222;2023-02-24T04:41:29;8;8;
70915;PMS5003;58557;50.982;-3.222;2023-02-24T04:43:54;14;7;
70915;PMS5003;58557;50.982;-3.222;2023-02-24T04:46:20;10;10;
70915;PMS5003;58557;50.982;-3.222;2023-02-24T04:48:45;12;8;
70915;PMS5003;58557;50.982;-3.222;2023-02-24T04:51:10;10;8;
70915;PMS5003;58557;50.982;-3.222;2023-02-24T04:53:35;12;12;
70915;PMS5003;58557;50.982;-3.222;2023-02-24T04:56:02;15;10;
70915;PMS5003;58557;50.982;-3.222;2023-02-24T04:58:26;12;11;
70915;PMS5003;58557;50.982;-3.222;2023-02-24T05:00:51;11;9;
70915;PMS5003;58557;50.982;-3.222;2023-02-24T05:03:17;13;8;
70915;PMS5003;58557;50.982;-3.222;2023-02-24T05:08:07;14;11;
70915;PMS5003;58557;50.982;-3.222;2023-02-24T05:10:34;15;14;
70915;PMS5003;58557;50.982;-3.222;2023-02-24T05:12:57;7;7;
70915;PMS5003;58557;50.982;-3.222;2023-02-24T05:15:22;15;12;
70915;PMS5003;58557;50.982;-3.222;2023-02-24T05:17:47;8;6;
70915;PMS5003;58557;50.982;-3.222;2023-02-24T05:20:12;12;11;
70915;PMS5003;58557;50.982;-3.222;2023-02-24T05:22:38;10;6;
70915;PMS5003;58557;50.982;-3.222;2023-02-24T05:25:04;8;8;
70915;PMS5003;58557;50.982;-3.222;2023-02-24T05:27:28;7;7;
70915;PMS5003;58557;50.982;-3.222;2023-02-24T05:29:53;7;5;
70915;PMS5003;58557;50.982;-3.222;2023-02-24T05:32:19;7;6;
70915;PMS5003;58557;50.982;-3.222;2023-02-24T05:34:44;8;7;
70915;PMS5003;58557;50.982;-3.222;2023-02-24T05:37:09;6;6;
70915;PMS5003;58557;50.982;-3.222;2023-02-24T05:39:35;7;6;
70915;PMS5003;58557;50.982;-3.222;2023-02-24T05:42:00;11;10;
70915;PMS5003;58557;50.982;-3.222;2023-02-24T05:44:25;7;6;
70915;PMS5003;58557;50.982;-3.222;2023-02-24T05:46:54;12;10;
70915;PMS5003;58557;50.982;-3.222;2023-02-24T05:49:17;10;6;
70915;PMS5003;58557;50.982;-3.222;2023-02-24T05:51:41;7;7;
70915;PMS5003;58557;50.982;-3.222;2023-02-24T05:54:07;8;6;
70915;PMS5003;58557;50.982;-3.222;2023-02-24T05:56:31;5;5;
70915;PMS5003;58557;50.982;-3.222;2023-02-24T05:58:57;6;6;
70915;PMS5003;58557;50.982;-3.222;2023-02-24T06:01:21;8;6;
70915;PMS5003;58557;50.982;-3.222;2023-02-24T06:03:47;8;6;
70915;PMS5003;58557;50.982;-3.222;2023-02-24T06:06:12;8;7;
70915;PMS5003;58557;50.982;-3.222;2023-02-24T06:08:37;7;7;
70915;PMS5003;58557;50.982;-3.222;2023-02-24T06:11:02;12;6;
70915;PMS5003;58557;50.982;-3.222;2023-02-24T06:13:28;8;6;
70915;PMS5003;58557;50.982;-3.222;2023-02-24T06:15:54;12;7;
70915;PMS5003;58557;50.982;-3.222;2023-02-24T06:18:19;11;7;
70915;PMS5003;58557;50.982;-3.222;2023-02-24T06:20:44;7;7;
70915;PMS5003;58557;50.982;-3.222;2023-02-24T06:23:09;7;5;
70915;PMS5003;58557;50.982;-3.222;2023-02-24T06:25:34;11;7;
70915;PMS5003;58557;50.982;-3.222;2023-02-24T06:27:59;10;8;
70915;PMS5003;58557;50.982;-3.222;2023-02-24T06:30:24;8;8;
70915;PMS5003;58557;50.982;-3.222;2023-02-24T06:32:50;12;11;
70915;PMS5003;58557;50.982;-3.222;2023-02-24T06:35:15;6;6;
70915;PMS5003;58557;50.982;-3.222;2023-02-24T06:37:40;11;7;
70915;PMS5003;58557;50.982;-3.222;2023-02-24T06:40:06;6;6;
70915;PMS5003;58557;50.982;-3.222;2023-02-24T06:42:30;6;6;
70915;PMS5003;58557;50.982;-3.222;2023-02-24T06:44:56;12;11;
70915;PMS5003;58557;50.982;-3.222;2023-02-24T06:47:22;15;10;
70915;PMS5003;58557;50.982;-3.222;2023-02-24T06:49:47;10;10;
70915;PMS5003;58557;50.982;-3.222;2023-02-24T06:52:12;8;6;
70915;PMS5003;58557;50.982;-3.222;2023-02-24T06:54:37;8;7;
70915;PMS5003;58557;50.982;-3.222;2023-02-24T06:57:02;7;7;
70915;PMS5003;58557;50.982;-3.222;2023-02-24T06:59:28;13;11;
70915;PMS5003;58557;50.982;-3.222;2023-02-24T07:01:53;8;8;
70915;PMS5003;58557;50.982;-3.222;2023-02-24T07:04:18;7;7;
70915;PMS5003;58557;50.982;-3.222;2023-02-24T07:06:44;16;10;
70915;PMS5003;58557;50.982;-3.222;2023-02-24T07:09:10;8;6;
70915;PMS5003;58557;50.982;-3.222;2023-02-24T07:11:35;7;7;
70915;PMS5003;58557;50.982;-3.222;2023-02-24T07:13:59;10;8;
70915;PMS5003;58557;50.982;-3.222;2023-02-24T07:16:25;10;7;
70915;PMS5003;58557;50.982;-3.222;2023-02-24T07:18:52;7;7;
70915;PMS5003;58557;50.982;-3.222;2023-02-24T07:21:15;11;8;
70915;PMS5003;58557;50.982;-3.222;2023-02-24T07:23:41;11;10;
70915;PMS5003;58557;50.982;-3.222;2023-02-24T07:26:07;8;8;
70915;PMS5003;58557;50.982;-3.222;2023-02-24T07:28:31;10;10;
70915;PMS5003;58557;50.982;-3.222;2023-02-24T07:30:56;13;10;
70915;PMS5003;58557;50.982;-3.222;2023-02-24T07:33:21;15;10;
70915;PMS5003;58557;50.982;-3.222;2023-02-24T07:35:48;7;7;
70915;PMS5003;58557;50.982;-3.222;2023-02-24T07:38:12;11;10;
70915;PMS5003;58557;50.982;-3.222;2023-02-24T07:40:38;20;16;
70915;PMS5003;58557;50.982;-3.222;2023-02-24T07:43:03;11;11;
70915;PMS5003;58557;50.982;-3.222;2023-02-24T07:45:28;15;13;
70915;PMS5003;58557;50.982;-3.222;2023-02-24T07:47:54;16;12;
70915;PMS5003;58557;50.982;-3.222;2023-02-24T07:50:19;13;12;
70915;PMS5003;58557;50.982;-3.222;2023-02-24T07:52:44;12;12;
70915;PMS5003;58557;50.982;-3.222;2023-02-24T07:55:10;17;17;
70915;PMS5003;58557;50.982;-3.222;2023-02-24T07:57:35;11;9;
70915;PMS5003;58557;50.982;-3.222;2023-02-24T08:00:01;12;11;
70915;PMS5003;58557;50.982;-3.222;2023-02-24T08:02:26;13;13;
70915;PMS5003;58557;50.982;-3.222;2023-02-24T08:04:52;14;14;
70915;PMS5003;58557;50.982;-3.222;2023-02-24T08:07:17;16;16;
70915;PMS5003;58557;50.982;-3.222;2023-02-24T08:09:42;21;16;
70915;PMS5003;58557;50.982;-3.222;2023-02-24T08:12:08;13;13;
70915;PMS5003;58557;50.982;-3.222;2023-02-24T08:14:33;14;12;
70915;PMS5003;58557;50.982;-3.222;2023-02-24T08:16:59;16;13;
70915;PMS5003;58557;50.982;-3.222;2023-02-24T08:19:24;17;14;
70915;PMS5003;58557;50.982;-3.222;2023-02-24T08:21:51;12;12;
70915;PMS5003;58557;50.982;-3.222;2023-02-24T08:24:16;16;12;
70915;PMS5003;58557;50.982;-3.222;2023-02-24T08:26:40;21;12;
70915;PMS5003;58557;50.982;-3.222;2023-02-24T08:29:05;18;14;
70915;PMS5003;58557;50.982;-3.222;2023-02-24T08:31:31;13;12;
70915;PMS5003;58557;50.982;-3.222;2023-02-24T08:33:56;18;13;
70915;PMS5003;58557;50.982;-3.222;2023-02-24T08:36:21;12;8;
70915;PMS5003;58557;50.982;-3.222;2023-02-24T08:38:46;13;12;
70915;PMS5003;58557;50.982;-3.222;2023-02-24T08:41:12;13;8;
70915;PMS5003;58557;50.982;-3.222;2023-02-24T08:43:37;12;12;
70915;PMS5003;58557;50.982;-3.222;2023-02-24T08:46:04;12;10;
70915;PMS5003;58557;50.982;-3.222;2023-02-24T08:48:28;9;9;
70915;PMS5003;58557;50.982;-3.222;2023-02-24T08:50:53;7;7;
70915;PMS5003;58557;50.982;-3.222;2023-02-24T08:53:17;7;6;
70915;PMS5003;58557;50.982;-3.222;2023-02-24T08:55:42;8;8;
70915;PMS5003;58557;50.982;-3.222;2023-02-24T08:58:07;12;9;
70915;PMS5003;58557;50.982;-3.222;2023-02-24T09:00:32;8;8;
70915;PMS5003;58557;50.982;-3.222;2023-02-24T09:02:58;8;8;
70915;PMS5003;58557;50.982;-3.222;2023-02-24T09:05:23;11;9;
70915;PMS5003;58557;50.982;-3.222;2023-02-24T09:07:48;8;8;
70915;PMS5003;58557;50.982;-3.222;2023-02-24T09:10:14;14;14;
70915;PMS5003;58557;50.982;-3.222;2023-02-24T09:12:39;13;11;
70915;PMS5003;58557;50.982;-3.222;2023-02-24T09:15:09;13;10;
70915;PMS5003;58557;50.982;-3.222;2023-02-24T09:17:30;10;9;
70915;PMS5003;58557;50.982;-3.222;2023-02-24T09:19:55;10;8;
70915;PMS5003;58557;50.982;-3.222;2023-02-24T09:22:20;18;11;
70915;PMS5003;58557;50.982;-3.222;2023-02-24T09:24:45;16;12;
70915;PMS5003;58557;50.982;-3.222;2023-02-24T09:27:10;9;9;
70915;PMS5003;58557;50.982;-3.222;2023-02-24T09:29:36;11;11;
70915;PMS5003;58557;50.982;-3.222;2023-02-24T09:32:02;11;9;
70915;PMS5003;58557;50.982;-3.222;2023-02-24T09:34:27;13;12;
70915;PMS5003;58557;50.982;-3.222;2023-02-24T09:36:53;8;8;
70915;PMS5003;58557;50.982;-3.222;2023-02-24T09:39:18;9;7;
70915;PMS5003;58557;50.982;-3.222;2023-02-24T09:41:45;7;6;
70915;PMS5003;58557;50.982;-3.222;2023-02-24T09:44:11;6;5;
70915;PMS5003;58557;50.982;-3.222;2023-02-24T09:46:37;10;10;
70915;PMS5003;58557;50.982;-3.222;2023-02-24T09:49:01;13;11;
70915;PMS5003;58557;50.982;-3.222;2023-02-24T09:51:26;12;11;
70915;PMS5003;58557;50.982;-3.222;2023-02-24T09:53:52;11;10;
70915;PMS5003;58557;50.982;-3.222;2023-02-24T09:56:16;9;9;
70915;PMS5003;58557;50.982;-3.222;2023-02-24T09:58:43;10;8;
70915;PMS5003;58557;50.982;-3.222;2023-02-24T10:01:12;13;12;
70915;PMS5003;58557;50.982;-3.222;2023-02-24T10:03:35;10;10;
70915;PMS5003;58557;50.982;-3.222;2023-02-24T10:06:00;10;10;
70915;PMS5003;58557;50.982;-3.222;2023-02-24T10:08:28;13;9;
70915;PMS5003;58557;50.982;-3.222;2023-02-24T10:10:50;11;6;
70915;PMS5003;58557;50.982;-3.222;2023-02-24T10:13:17;9;9;
70915;PMS5003;58557;50.982;-3.222;2023-02-24T10:15:42;4;4;
70915;PMS5003;58557;50.982;-3.222;2023-02-24T10:20:33;8;6;
70915;PMS5003;58557;50.982;-3.222;2023-02-24T10:22:57;8;8;
70915;PMS5003;58557;50.982;-3.222;2023-02-24T10:25:25;6;5;
70915;PMS5003;58557;50.982;-3.222;2023-02-24T10:27:51;5;5;
70915;PMS5003;58557;50.982;-3.222;2023-02-24T10:30:15;9;8;
70915;PMS5003;58557;50.982;-3.222;2023-02-24T10:32:41;9;5;
70915;PMS5003;58557;50.982;-3.222;2023-02-24T10:35:07;11;6;
70915;PMS5003;58557;50.982;-3.222;2023-02-24T10:37:31;8;4;
70915;PMS5003;58557;50.982;-3.222;2023-02-24T10:39:57;4;4;
70915;PMS5003;58557;50.982;-3.222;2023-02-24T10:42:22;9;6;
70915;PMS5003;58557;50.982;-3.222;2023-02-24T10:44:47;6;6;
70915;PMS5003;58557;50.982;-3.222;2023-02-24T10:47:11;9;7;
70915;PMS5003;58557;50.982;-3.222;2023-02-24T10:49:39;5;5;
70915;PMS5003;58557;50.982;-3.222;2023-02-24T10:52:03;10;6;
70915;PMS5003;58557;50.982;-3.222;2023-02-24T10:54:29;9;7;
70915;PMS5003;58557;50.982;-3.222;2023-02-24T10:56:55;9;6;
70915;PMS5003;58557;50.982;-3.222;2023-02-24T10:59:20;8;4;
70915;PMS5003;58557;50.982;-3.222;2023-02-24T11:01:50;6;6;
70915;PMS5003;58557;50.982;-3.222;2023-02-24T11:04:12;9;6;
70915;PMS5003;58557;50.982;-3.222;2023-02-24T11:06:37;9;9;
70915;PMS5003;58557;50.982;-3.222;2023-02-24T11:09:02;9;6;
70915;PMS5003;58557;50.982;-3.222;2023-02-24T11:11:29;10;6;
70915;PMS5003;58557;50.982;-3.222;2023-02-24T11:13:53;5;5;
70915;PMS5003;58557;50.982;-3.222;2023-02-24T11:16:18;9;6;
70915;PMS5003;58557;50.982;-3.222;2023-02-24T11:18:44;9;8;
70915;PMS5003;58557;50.982;-3.222;2023-02-24T11:21:09;10;8;
70915;PMS5003;58557;50.982;-3.222;2023-02-24T11:23:37;12;9;
70915;PMS5003;58557;50.982;-3.222;2023-02-24T11:26:00;12;10;
70915;PMS5003;58557;50.982;-3.222;2023-02-24T11:28:29;14;13;
70915;PMS5003;58557;50.982;-3.222;2023-02-24T11:30:51;15;11;
70915;PMS5003;58557;50.982;-3.222;2023-02-24T11:33:18;13;11;
70915;PMS5003;58557;50.982;-3.222;2023-02-24T11:35:44;11;9;
70915;PMS5003;58557;50.982;-3.222;2023-02-24T11:38:10;10;10;
70915;PMS5003;58557;50.982;-3.222;2023-02-24T11:40:35;10;8;
70915;PMS5003;58557;50.982;-3.222;2023-02-24T11:42:59;16;12;
70915;PMS5003;58557;50.982;-3.222;2023-02-24T11:45:26;12;10;
70915;PMS5003;58557;50.982;-3.222;2023-02-24T11:47:51;16;11;
70915;PMS5003;58557;50.982;-3.222;2023-02-24T11:50:20;12;10;
70915;PMS5003;58557;50.982;-3.222;2023-02-24T11:52:40;11;11;
70915;PMS5003;58557;50.982;-3.222;2023-02-24T11:55:13;11;10;
70915;PMS5003;58557;50.982;-3.222;2023-02-24T11:57:32;11;9;
70915;PMS5003;58557;50.982;-3.222;2023-02-24T12:00:00;9;9;
70915;PMS5003;58557;50.982;-3.222;2023-02-24T12:02:25;9;8;
70915;PMS5003;58557;50.982;-3.222;2023-02-24T12:04:49;8;5;
70915;PMS5003;58557;50.982;-3.222;2023-02-24T12:07:17;10;9;
70915;PMS5003;58557;50.982;-3.222;2023-02-24T12:09:40;9;8;
70915;PMS5003;58557;50.982;-3.222;2023-02-24T12:12:06;10;9;
70915;PMS5003;58557;50.982;-3.222;2023-02-24T12:14:32;5;5;
70915;PMS5003;58557;50.982;-3.222;2023-02-24T12:16:57;5;5;
70915;PMS5003;58557;50.982;-3.222;2023-02-24T12:19:21;6;6;
70915;PMS5003;58557;50.982;-3.222;2023-02-24T12:21:48;6;6;
70915;PMS5003;58557;50.982;-3.222;2023-02-24T12:24:12;6;4;
70915;PMS5003;58557;50.982;-3.222;2023-02-24T12:26:38;6;5;
70915;PMS5003;58557;50.982;-3.222;2023-02-24T12:29:08;5;5;
70915;PMS5003;58557;50.982;-3.222;2023-02-24T12:31:30;6;5;
70915;PMS5003;58557;50.982;-3.222;2023-02-24T12:33:57;6;6;
70915;PMS5003;58557;50.982;-3.222;2023-02-24T12:36:22;6;5;
70915;PMS5003;58557;50.982;-3.222;2023-02-24T12:38:48;10;10;
70915;PMS5003;58557;50.982;-3.222;2023-02-24T12:41:15;4;4;
70915;PMS5003;58557;50.982;-3.222;2023-02-24T12:43:36;6;4;
70915;PMS5003;58557;50.982;-3.222;2023-02-24T12:46:02;8;5;
70915;PMS5003;58557;50.982;-3.222;2023-02-24T12:48:29;10;6;
70915;PMS5003;58557;50.982;-3.222;2023-02-24T12:50:53;8;6;
70915;PMS5003;58557;50.982;-3.222;2023-02-24T12:53:18;6;5;
70915;PMS5003;58557;50.982;-3.222;2023-02-24T12:55:44;5;5;
70915;PMS5003;58557;50.982;-3.222;2023-02-24T12:58:09;5;4;
70915;PMS5003;58557;50.982;-3.222;2023-02-24T13:00:36;7;7;
70915;PMS5003;58557;50.982;-3.222;2023-02-24T13:03:00;8;8;
70915;PMS5003;58557;50.982;-3.222;2023-02-24T13:05:26;12;10;
70915;PMS5003;58557;50.982;-3.222;2023-02-24T13:07:51;12;11;
70915;PMS5003;58557;50.982;-3.222;2023-02-24T13:10:17;10;9;
70915;PMS5003;58557;50.982;-3.222;2023-02-24T13:12:41;11;11;
70915;PMS5003;58557;50.982;-3.222;2023-02-24T13:15:06;12;12;
70915;PMS5003;58557;50.982;-3.222;2023-02-24T13:17:31;18;16;
70915;PMS5003;58557;50.982;-3.222;2023-02-24T13:19:56;23;20;
70915;PMS5003;58557;50.982;-3.222;2023-02-24T13:22:24;21;19;
70915;PMS5003;58557;50.982;-3.222;2023-02-24T13:27:18;23;19;
70915;PMS5003;58557;50.982;-3.222;2023-02-24T13:29:42;24;21;
70915;PMS5003;58557;50.982;-3.222;2023-02-24T13:32:04;20;20;
70915;PMS5003;58557;50.982;-3.222;2023-02-24T13:34:30;27;25;
70915;PMS5003;58557;50.982;-3.222;2023-02-24T13:36:56;25;24;
70915;PMS5003;58557;50.982;-3.222;2023-02-24T13:39:22;25;23;
70915;PMS5003;58557;50.982;-3.222;2023-02-24T13:41:46;29;27;
70915;PMS5003;58557;50.982;-3.222;2023-02-24T13:44:20;34;34;
70915;PMS5003;58557;50.982;-3.222;2023-02-24T13:46:45;30;27;
70915;PMS5003;58557;50.982;-3.222;2023-02-24T13:51:37;33;33;
70915;PMS5003;58557;50.982;-3.222;2023-02-24T13:53:58;38;37;
70915;PMS5003;58557;50.982;-3.222;2023-02-24T13:56:23;33;33;
70915;PMS5003;58557;50.982;-3.222;2023-02-24T13:58:50;31;26;
70915;PMS5003;58557;50.982;-3.222;2023-02-24T14:01:11;22;19;
70915;PMS5003;58557;50.982;-3.222;2023-02-24T14:03:37;25;23;
70915;PMS5003;58557;50.982;-3.222;2023-02-24T14:06:02;26;25;
70915;PMS5003;58557;50.982;-3.222;2023-02-24T14:08:30;24;20;
70915;PMS5003;58557;50.982;-3.222;2023-02-24T14:10:54;27;25;
70915;PMS5003;58557;50.982;-3.222;2023-02-24T14:13:19;23;20;
70915;PMS5003;58557;50.982;-3.222;2023-02-24T14:15:44;27;25;
70915;PMS5003;58557;50.982;-3.222;2023-02-24T14:18:16;18;17;
70915;PMS5003;58557;50.982;-3.222;2023-02-24T14:20:35;15;13;
70915;PMS5003;58557;50.982;-3.222;2023-02-24T14:23:01;17;13;
70915;PMS5003;58557;50.982;-3.222;2023-02-24T14:25:27;20;17;
70915;PMS5003;58557;50.982;-3.222;2023-02-24T14:27:52;13;13;
70915;PMS5003;58557;50.982;-3.222;2023-02-24T14:30:23;11;10;
70915;PMS5003;58557;50.982;-3.222;2023-02-24T14:32:42;16;12;
70915;PMS5003;58557;50.982;-3.222;2023-02-24T14:37:34;12;12;
70915;PMS5003;58557;50.982;-3.222;2023-02-24T14:39:59;10;8;
70915;PMS5003;58557;50.982;-3.222;2023-02-24T14:42:25;12;11;
70915;PMS5003;58557;50.982;-3.222;2023-02-24T14:44:51;9;9;
70915;PMS5003;58557;50.982;-3.222;2023-02-24T14:47:16;9;8;
70915;PMS5003;58557;50.982;-3.222;2023-02-24T14:49:40;6;6;
70915;PMS5003;58557;50.982;-3.222;2023-02-24T14:52:07;6;5;
70915;PMS5003;58557;50.982;-3.222;2023-02-24T14:54:36;9;7;
70915;PMS5003;58557;50.982;-3.222;2023-02-24T14:56:58;6;6;
70915;PMS5003;58557;50.982;-3.222;2023-02-24T14:59:25;8;5;
70915;PMS5003;58557;50.982;-3.222;2023-02-24T15:01:49;10;6;
70915;PMS5003;58557;50.982;-3.222;2023-02-24T15:04:19;11;8;
70915;PMS5003;58557;50.982;-3.222;2023-02-24T15:06:41;7;7;
70915;PMS5003;58557;50.982;-3.222;2023-02-24T15:09:10;14;10;
70915;PMS5003;58557;50.982;-3.222;2023-02-24T15:11:31;12;9;
70915;PMS5003;58557;50.982;-3.222;2023-02-24T15:13:58;9;8;
70915;PMS5003;58557;50.982;-3.222;2023-02-24T15:16:23;5;5;
70915;PMS5003;58557;50.982;-3.222;2023-02-24T15:18:49;8;8;
70915;PMS5003;58557;50.982;-3.222;2023-02-24T15:21:17;8;6;
70915;PMS5003;58557;50.982;-3.222;2023-02-24T15:23:39;9;8;
70915;PMS5003;58557;50.982;-3.222;2023-02-24T15:26:05;4;4;
70915;PMS5003;58557;50.982;-3.222;2023-02-24T15:28:31;6;6;
70915;PMS5003;58557;50.982;-3.222;2023-02-24T15:30:58;6;6;
70915;PMS5003;58557;50.982;-3.222;2023-02-24T15:33:22;9;9;
70915;PMS5003;58557;50.982;-3.222;2023-02-24T15:35:47;8;8;
70915;PMS5003;58557;50.982;-3.222;2023-02-24T15:38:12;9;5;
70915;PMS5003;58557;50.982;-3.222;2023-02-24T15:40:37;6;4;
70915;PMS5003;58557;50.982;-3.222;2023-02-24T15:43:07;4;4;
70915;PMS5003;58557;50.982;-3.222;2023-02-24T15:45:29;9;5;
70915;PMS5003;58557;50.982;-3.222;2023-02-24T15:47:54;4;4;
70915;PMS5003;58557;50.982;-3.222;2023-02-24T15:50:19;4;4;
70915;PMS5003;58557;50.982;-3.222;2023-02-24T15:52:45;5;5;
70915;PMS5003;58557;50.982;-3.222;2023-02-24T15:55:10;6;5;
70915;PMS5003;58557;50.982;-3.222;2023-02-24T15:57:36;4;3;
70915;PMS5003;58557;50.982;-3.222;2023-02-24T16:00:01;4;4;
70915;PMS5003;58557;50.982;-3.222;2023-02-24T16:02:26;4;3;
70915;PMS5003;58557;50.982;-3.222;2023-02-24T16:04:52;5;4;
70915;PMS5003;58557;50.982;-3.222;2023-02-24T16:07:18;6;3;
70915;PMS5003;58557;50.982;-3.222;2023-02-24T16:09:42;4;4;
70915;PMS5003;58557;50.982;-3.222;2023-02-24T16:12:09;4;4;
70915;PMS5003;58557;50.982;-3.222;2023-02-24T16:14:34;4;4;
70915;PMS5003;58557;50.982;-3.222;2023-02-24T16:17:00;5;3;
70915;PMS5003;58557;50.982;-3.222;2023-02-24T16:19:25;4;4;
70915;PMS5003;58557;50.982;-3.222;2023-02-24T16:21:50;5;5;